• Join FlightAware (Why Join?)
  • Login
  • US Flag 
05:50PM EDT


 

Airport Tracker/Info


-or-


 

Live Flight TrackerFlight Track Log ✈ N273SK ✈ 29-Apr-2013 ✈ CYUL - KDTW

Flight Track Log - Related Links

Times and Time Zones

All times are in EDT time to prevent confusion due to time zone crossing. See the N273SK flight status page for this flight to view local times or setup timezone preferences in your user account.

Time Position Orientation Groundspeed Altitude Reporting Facility
EDT Latitude Longitude Course Direction KTS MPH feet Rate Location/Type
10:59AM 45.4500 -73.8167 245° Southwest 180 207 1,700  Level Montreal Center
11:00AM 45.4500 -73.8833 270° West 220 253 3,700 2,100 Climbing Montreal Center
11:01AM 45.5951 -74.1187 295° West  Level FlightAware Approximate
11:01AM 45.4500 -73.9833 270° West 260 299 5,900  Level Montreal Center
11:02AM 45.5701 -74.2528 250° West  Level FlightAware Approximate
11:02AM 45.4833 -74.1000 292° West 280 322 8,100  Level Montreal Center
11:03AM 45.5253 -74.3805 243° Southwest  Level FlightAware Approximate
11:03AM 45.4833 -74.2167 270° West 280 322 10,600  Level Montreal Center
11:04AM 45.4957 -74.5139 259° West  Level FlightAware Approximate
11:04AM 45.5000 -74.3167 283° West 280 322 12,400  Level Montreal Center
11:05AM 45.4819 -74.6544 245° Southwest  Level FlightAware Approximate
11:05AM 45.5000 -74.4333 270° West 310 357 13,700  Level Montreal Center
11:06AM 45.4833 -74.5833 261° West 320 368 15,300 1,500 Climbing Montreal Center
11:07AM 45.4667 -74.7000 259° West 320 368 16,800 1,380 Climbing Montreal Center
11:08AM 45.4500 -74.8167 259° West 330 380 18,100 1,500 Climbing Montreal Center
11:09AM 45.4333 -74.9667 261° West 330 380 19,900 1,680 Climbing Montreal Center
11:10AM 45.4167 -75.0833 259° West 330 380 21,500 1,620 Climbing Montreal Center
11:11AM 45.3833 -75.2000 248° West 330 380 23,200 1,620 Climbing Montreal Center
11:12AM 45.3667 -75.3500 261° West 330 380 24,800 1,500 Climbing Montreal Center
11:13AM 45.3500 -75.4667 259° West 330 380 26,300 1,440 Climbing Montreal Center
11:14AM 45.3333 -75.5833 259° West 330 380 27,700 1,380 Climbing Montreal Center
11:15AM 45.3167 -75.7333 261° West 340 391 29,100 1,380 Climbing Montreal Center
11:16AM 45.3000 -75.8500 259° West 330 380 30,500 1,380 Climbing Montreal Center
11:17AM 45.2667 -76.0000 253° West 330 380 31,900 720 Climbing Montreal Center
11:18AM 45.2500 -76.1167 259° West 340 391 32,000  Climbing Montreal Center
11:19AM 45.2167 -76.2500 251° West 370 426 32,000  Level Montreal Center
11:20AM 45.1667 -76.4000 245° Southwest 400 460 32,000  Level Montreal Center
11:21AM 45.1167 -76.5333 242° Southwest 410 472 32,000  Level Montreal Center
11:21AM 45.0833 -76.5833 227° Southwest 410 472 32,000  Level Toronto Center
11:22AM 45.0667 -76.6833 257° West 410 472 32,000  Level Montreal Center
11:23AM 45.0000 -76.8167 235° Southwest 410 472 32,000  Level Montreal Center
11:24AM 44.9500 -76.9833 247° West 420 483 32,000  Level Montreal Center
11:24AM 44.9167 -77.0167 215° Southwest 420 483 32,000  Level Toronto Center
11:25AM 44.8500 -77.1667 238° Southwest 420 483 32,000  Level Toronto Center
11:26AM 44.8333 -77.2667 257° West 420 483 32,000  Level Montreal Center
11:27AM 44.7833 -77.4000 242° Southwest 420 483 32,000  Level Montreal Center
11:28AM 44.7167 -77.5500 238° Southwest 420 483 32,000  Level Montreal Center
11:29AM 44.6667 -77.6833 242° Southwest 420 483 32,000  Level Montreal Center
11:29AM 44.6333 -77.7333 227° Southwest 430 495 32,000  Level Toronto Center
11:30AM 44.6000 -77.8333 245° Southwest 420 483 32,000  Level Montreal Center
11:30AM 44.5667 -77.8833 227° Southwest 420 483 32,000  Level Toronto Center
11:31AM 44.5000 -78.0167 235° Southwest 420 483 32,000  Level Toronto Center
11:32AM 44.4500 -78.1667 245° Southwest 420 483 32,000  Level Toronto Center
11:33AM 44.3833 -78.3000 235° Southwest 420 483 32,000  Level Toronto Center
11:34AM 44.3667 -78.4000 257° West 420 483 32,000  Level Montreal Center
11:34AM 44.3167 -78.4500 216° Southwest 420 483 32,000  Level Toronto Center
11:35AM 44.2833 -78.5833 251° West 420 483 32,000  Level Toronto Center
11:36AM 44.2167 -78.7333 238° Southwest 420 483 32,000  Level Toronto Center
11:37AM 44.1500 -78.8667 235° Southwest 430 495 32,000  Level Toronto Center
11:38AM 44.0833 -79.0333 241° Southwest 430 495 32,000  Level Toronto Center
11:39AM 44.0333 -79.1500 239° Southwest 430 495 32,000  Level Toronto Center
11:40AM 43.9667 -79.2833 235° Southwest 430 495 32,000  Level Toronto Center
11:41AM 43.9000 -79.4167 235° Southwest 430 495 32,000  Level Toronto Center
11:42AM 43.8333 -79.5667 238° Southwest 420 483 32,000 -180 Level Toronto Center
11:43AM 43.7667 -79.7000 235° Southwest 430 495 31,700 -660 Descending Toronto Center
11:44AM 43.6667 -79.8000 216° Southwest 430 495 30,700 -1,080 Descending Toronto Center
11:45AM 43.5667 -79.9167 220° Southwest 430 495 29,600 -1,140 Descending Toronto Center
11:46AM 43.4833 -80.0000 216° Southwest 430 495 28,500 -1,140 Descending Toronto Center
11:47AM 43.3833 -80.1167 220° Southwest 430 495 27,400 -1,080 Descending Toronto Center
11:48AM 43.3000 -80.2000 216° Southwest 420 483 26,400 -1,080 Descending Toronto Center
11:49AM 43.2000 -80.3167 220° Southwest 420 483 25,300 -1,380 Descending Toronto Center
11:50AM 43.1167 -80.4167 221° Southwest 430 495 23,700 -1,200 Descending Toronto Center
11:51AM 43.0333 -80.5167 221° Southwest 440 506 23,000 -360 Descending Toronto Center
11:52AM 42.9333 -80.6167 216° Southwest 420 483 23,000  Level Toronto Center
11:53AM 42.8708 -80.7136 229° Southwest 412 474 23,000  Level Cleveland Center
11:54AM 42.7831 -80.8039 217° Southwest 407 468 23,000  Level Cleveland Center
11:55AM 42.7078 -80.9167 228° Southwest 401 461 23,000  Level Cleveland Center
11:56AM 42.6864 -81.0633 259° West 384 442 23,000  Level Cleveland Center
11:57AM 42.6711 -81.2100 262° West 397 457 23,000 -300 Level Cleveland Center
11:58AM 42.6514 -81.3567 260° West 397 457 22,500 -780 Descending Cleveland Center
11:59AM 42.6336 -81.5061 261° West 397 457 21,500 -1,020 Descending Cleveland Center
12:00PM 42.6178 -81.6581 262° West 412 474 20,500 -960 Descending Cleveland Center
12:01PM 42.5997 -81.7903 260° West 412 474 19,600 -1,140 Descending Cleveland Center
12:02PM 42.5814 -81.9394 261° West 412 474 18,300 -1,260 Descending Cleveland Center
12:03PM 42.5650 -82.0886 262° West 412 474 17,100 -1,320 Descending Cleveland Center
12:04PM 42.5464 -82.2319 260° West 412 474 15,700 -1,560 Descending Cleveland Center
12:05PM 42.5317 -82.3781 262° West 388 447 14,200 -1,860 Descending Cleveland Center
12:06PM 42.5131 -82.5014 258° West 356 410 12,400 -1,380 Descending Cleveland Center
12:07PM 42.4817 -82.6186 250° West 283 326 11,500 -1,140 Descending Cleveland Center
12:08PM 42.4467 -82.7161 244° Southwest 309 356 10,000 -1,440 Descending Cleveland Center
12:09PM 42.4197 -82.8108 249° West 286 329 8,500 -1,560 Descending Cleveland Center
12:10PM 42.4094 -82.9144 262° West 262 302 7,000 -840 Descending Cleveland Center
12:11PM 42.4139 -83.0075 274° West 232 267 6,900 -720 Descending Cleveland Center
12:12PM 42.4206 -83.0836 277° West 241 277 5,600 -960 Descending Cleveland Center
12:13PM 42.4353 -83.1742 282° West 222 255 5,000 -600 Descending Cleveland Center
12:14PM 42.3822 -83.2142 209° Southwest 219 252 4,400 -600 Descending Cleveland Center